sensor_id;sensor_type;location;lat;lon;timestamp;P1;durP1;ratioP1;P2;durP2;ratioP2
8474;SDS011;4274;52.012;8.448;2023-03-23T00:01:04;46.50;;;4.93;;
8474;SDS011;4274;52.012;8.448;2023-03-23T00:03:31;46.97;;;4.70;;
8474;SDS011;4274;52.012;8.448;2023-03-23T00:06:00;45.70;;;4.83;;
8474;SDS011;4274;52.012;8.448;2023-03-23T00:08:27;47.83;;;4.60;;
8474;SDS011;4274;52.012;8.448;2023-03-23T00:10:53;47.10;;;5.07;;
8474;SDS011;4274;52.012;8.448;2023-03-23T00:13:24;47.37;;;4.50;;
8474;SDS011;4274;52.012;8.448;2023-03-23T00:15:50;50.93;;;5.17;;
8474;SDS011;4274;52.012;8.448;2023-03-23T00:18:19;49.10;;;4.93;;
8474;SDS011;4274;52.012;8.448;2023-03-23T00:20:47;47.47;;;5.20;;
8474;SDS011;4274;52.012;8.448;2023-03-23T00:23:17;53.60;;;4.53;;
8474;SDS011;4274;52.012;8.448;2023-03-23T00:25:47;46.90;;;5.50;;
8474;SDS011;4274;52.012;8.448;2023-03-23T00:28:13;45.90;;;5.00;;
8474;SDS011;4274;52.012;8.448;2023-03-23T00:30:40;45.13;;;4.77;;
8474;SDS011;4274;52.012;8.448;2023-03-23T00:33:09;46.87;;;4.90;;
8474;SDS011;4274;52.012;8.448;2023-03-23T00:35:37;49.60;;;4.90;;
8474;SDS011;4274;52.012;8.448;2023-03-23T00:38:04;46.77;;;5.23;;
8474;SDS011;4274;52.012;8.448;2023-03-23T00:40:30;44.53;;;4.67;;
8474;SDS011;4274;52.012;8.448;2023-03-23T00:42:56;46.20;;;5.40;;
8474;SDS011;4274;52.012;8.448;2023-03-23T00:45:22;46.63;;;4.90;;
8474;SDS011;4274;52.012;8.448;2023-03-23T00:47:48;48.13;;;5.17;;
8474;SDS011;4274;52.012;8.448;2023-03-23T00:50:16;48.33;;;4.87;;
8474;SDS011;4274;52.012;8.448;2023-03-23T00:52:43;47.07;;;5.10;;
8474;SDS011;4274;52.012;8.448;2023-03-23T00:55:08;45.77;;;5.30;;
8474;SDS011;4274;52.012;8.448;2023-03-23T00:57:34;48.50;;;5.33;;
8474;SDS011;4274;52.012;8.448;2023-03-23T01:00:00;50.20;;;6.17;;
8474;SDS011;4274;52.012;8.448;2023-03-23T01:02:26;49.90;;;5.80;;
8474;SDS011;4274;52.012;8.448;2023-03-23T01:04:52;45.90;;;5.20;;
8474;SDS011;4274;52.012;8.448;2023-03-23T01:07:20;48.63;;;5.40;;
8474;SDS011;4274;52.012;8.448;2023-03-23T01:09:48;50.00;;;5.03;;
8474;SDS011;4274;52.012;8.448;2023-03-23T01:12:14;48.27;;;5.13;;
8474;SDS011;4274;52.012;8.448;2023-03-23T01:14:40;48.17;;;4.83;;
8474;SDS011;4274;52.012;8.448;2023-03-23T01:17:06;48.83;;;4.83;;
8474;SDS011;4274;52.012;8.448;2023-03-23T01:19:32;48.30;;;4.80;;
8474;SDS011;4274;52.012;8.448;2023-03-23T01:21:58;45.27;;;4.20;;
8474;SDS011;4274;52.012;8.448;2023-03-23T01:24:23;46.07;;;4.43;;
8474;SDS011;4274;52.012;8.448;2023-03-23T01:26:49;44.37;;;4.40;;
8474;SDS011;4274;52.012;8.448;2023-03-23T01:29:15;44.57;;;4.67;;
8474;SDS011;4274;52.012;8.448;2023-03-23T01:31:40;49.00;;;5.10;;
8474;SDS011;4274;52.012;8.448;2023-03-23T01:34:07;44.37;;;4.50;;
8474;SDS011;4274;52.012;8.448;2023-03-23T01:36:35;47.90;;;4.40;;
8474;SDS011;4274;52.012;8.448;2023-03-23T01:39:01;45.57;;;4.90;;
8474;SDS011;4274;52.012;8.448;2023-03-23T01:41:29;45.77;;;4.63;;
8474;SDS011;4274;52.012;8.448;2023-03-23T01:46:34;48.10;;;3.80;;
8474;SDS011;4274;52.012;8.448;2023-03-23T01:49:06;44.70;;;4.20;;
8474;SDS011;4274;52.012;8.448;2023-03-23T01:51:35;51.40;;;4.17;;
8474;SDS011;4274;52.012;8.448;2023-03-23T01:54:06;45.57;;;4.30;;
8474;SDS011;4274;52.012;8.448;2023-03-23T01:56:43;44.40;;;4.00;;
8474;SDS011;4274;52.012;8.448;2023-03-23T01:59:13;48.67;;;4.00;;
8474;SDS011;4274;52.012;8.448;2023-03-23T02:01:40;44.53;;;3.80;;
8474;SDS011;4274;52.012;8.448;2023-03-23T02:04:09;47.50;;;4.40;;
8474;SDS011;4274;52.012;8.448;2023-03-23T02:06:36;46.90;;;3.93;;
8474;SDS011;4274;52.012;8.448;2023-03-23T02:09:02;45.23;;;4.47;;
8474;SDS011;4274;52.012;8.448;2023-03-23T02:11:31;54.03;;;4.10;;
8474;SDS011;4274;52.012;8.448;2023-03-23T02:13:56;49.20;;;3.87;;
8474;SDS011;4274;52.012;8.448;2023-03-23T02:18:58;46.50;;;4.00;;
8474;SDS011;4274;52.012;8.448;2023-03-23T02:21:55;45.40;;;4.40;;
8474;SDS011;4274;52.012;8.448;2023-03-23T02:27:06;45.83;;;4.10;;
8474;SDS011;4274;52.012;8.448;2023-03-23T02:29:48;47.17;;;3.80;;
8474;SDS011;4274;52.012;8.448;2023-03-23T02:32:26;42.60;;;3.80;;
8474;SDS011;4274;52.012;8.448;2023-03-23T02:35:27;43.93;;;3.70;;
8474;SDS011;4274;52.012;8.448;2023-03-23T02:38:00;43.37;;;3.73;;
8474;SDS011;4274;52.012;8.448;2023-03-23T02:40:39;47.73;;;4.30;;
8474;SDS011;4274;52.012;8.448;2023-03-23T02:43:09;43.37;;;3.73;;
8474;SDS011;4274;52.012;8.448;2023-03-23T02:45:39;44.70;;;4.30;;
8474;SDS011;4274;52.012;8.448;2023-03-23T02:48:07;45.47;;;4.43;;
8474;SDS011;4274;52.012;8.448;2023-03-23T02:50:34;42.80;;;3.87;;
8474;SDS011;4274;52.012;8.448;2023-03-23T02:53:01;43.87;;;3.83;;
8474;SDS011;4274;52.012;8.448;2023-03-23T02:55:31;44.70;;;4.03;;
8474;SDS011;4274;52.012;8.448;2023-03-23T02:57:57;44.20;;;3.83;;
8474;SDS011;4274;52.012;8.448;2023-03-23T03:00:26;45.67;;;3.70;;
8474;SDS011;4274;52.012;8.448;2023-03-23T03:02:52;42.93;;;3.60;;
8474;SDS011;4274;52.012;8.448;2023-03-23T03:08:36;43.37;;;3.23;;
8474;SDS011;4274;52.012;8.448;2023-03-23T03:11:21;43.60;;;3.40;;
8474;SDS011;4274;52.012;8.448;2023-03-23T03:13:55;42.50;;;3.20;;
8474;SDS011;4274;52.012;8.448;2023-03-23T03:19:08;45.70;;;3.07;;
8474;SDS011;4274;52.012;8.448;2023-03-23T03:21:37;47.50;;;4.30;;
8474;SDS011;4274;52.012;8.448;2023-03-23T03:24:06;42.00;;;3.17;;
8474;SDS011;4274;52.012;8.448;2023-03-23T03:26:36;42.93;;;3.83;;
8474;SDS011;4274;52.012;8.448;2023-03-23T03:29:05;48.40;;;3.50;;
8474;SDS011;4274;52.012;8.448;2023-03-23T03:31:33;42.00;;;3.23;;
8474;SDS011;4274;52.012;8.448;2023-03-23T03:34:03;44.60;;;3.93;;
8474;SDS011;4274;52.012;8.448;2023-03-23T03:36:30;43.30;;;3.43;;
8474;SDS011;4274;52.012;8.448;2023-03-23T03:39:05;43.20;;;3.40;;
8474;SDS011;4274;52.012;8.448;2023-03-23T03:41:33;44.30;;;3.40;;
8474;SDS011;4274;52.012;8.448;2023-03-23T03:44:00;45.93;;;3.50;;
8474;SDS011;4274;52.012;8.448;2023-03-23T03:46:27;46.33;;;3.03;;
8474;SDS011;4274;52.012;8.448;2023-03-23T03:48:55;44.00;;;3.73;;
8474;SDS011;4274;52.012;8.448;2023-03-23T03:51:24;45.00;;;4.27;;
8474;SDS011;4274;52.012;8.448;2023-03-23T03:53:51;45.20;;;5.17;;
8474;SDS011;4274;52.012;8.448;2023-03-23T03:56:17;46.27;;;4.20;;
8474;SDS011;4274;52.012;8.448;2023-03-23T03:58:42;45.07;;;4.43;;
8474;SDS011;4274;52.012;8.448;2023-03-23T04:01:11;47.77;;;5.50;;
8474;SDS011;4274;52.012;8.448;2023-03-23T04:03:38;45.03;;;4.40;;
8474;SDS011;4274;52.012;8.448;2023-03-23T04:06:04;50.90;;;4.50;;
8474;SDS011;4274;52.012;8.448;2023-03-23T04:08:30;43.27;;;3.90;;
8474;SDS011;4274;52.012;8.448;2023-03-23T04:10:56;46.07;;;4.40;;
8474;SDS011;4274;52.012;8.448;2023-03-23T04:13:22;44.43;;;4.10;;
8474;SDS011;4274;52.012;8.448;2023-03-23T04:15:48;47.43;;;5.97;;
8474;SDS011;4274;52.012;8.448;2023-03-23T04:18:14;46.50;;;4.53;;
8474;SDS011;4274;52.012;8.448;2023-03-23T04:20:42;45.47;;;4.63;;
8474;SDS011;4274;52.012;8.448;2023-03-23T04:23:12;48.50;;;5.43;;
8474;SDS011;4274;52.012;8.448;2023-03-23T04:25:39;45.50;;;4.23;;
8474;SDS011;4274;52.012;8.448;2023-03-23T04:28:07;44.60;;;4.50;;
8474;SDS011;4274;52.012;8.448;2023-03-23T04:30:35;43.77;;;3.87;;
8474;SDS011;4274;52.012;8.448;2023-03-23T04:33:01;46.20;;;4.07;;
8474;SDS011;4274;52.012;8.448;2023-03-23T04:35:27;43.20;;;3.63;;
8474;SDS011;4274;52.012;8.448;2023-03-23T04:37:54;42.07;;;3.13;;
8474;SDS011;4274;52.012;8.448;2023-03-23T04:40:22;42.33;;;3.40;;
8474;SDS011;4274;52.012;8.448;2023-03-23T04:42:48;42.67;;;3.20;;
8474;SDS011;4274;52.012;8.448;2023-03-23T04:45:18;42.50;;;3.60;;
8474;SDS011;4274;52.012;8.448;2023-03-23T04:47:46;41.90;;;3.00;;
8474;SDS011;4274;52.012;8.448;2023-03-23T04:50:19;44.50;;;2.90;;
8474;SDS011;4274;52.012;8.448;2023-03-23T04:52:48;42.47;;;2.77;;
8474;SDS011;4274;52.012;8.448;2023-03-23T04:55:16;45.80;;;3.63;;
8474;SDS011;4274;52.012;8.448;2023-03-23T04:57:43;43.20;;;3.20;;
8474;SDS011;4274;52.012;8.448;2023-03-23T05:00:10;44.33;;;3.20;;
8474;SDS011;4274;52.012;8.448;2023-03-23T05:02:39;44.70;;;3.50;;
8474;SDS011;4274;52.012;8.448;2023-03-23T05:05:10;44.00;;;3.23;;
8474;SDS011;4274;52.012;8.448;2023-03-23T05:07:40;44.10;;;3.13;;
8474;SDS011;4274;52.012;8.448;2023-03-23T05:10:07;44.10;;;3.20;;
8474;SDS011;4274;52.012;8.448;2023-03-23T05:12:34;42.43;;;3.20;;
8474;SDS011;4274;52.012;8.448;2023-03-23T05:15:00;42.70;;;3.20;;
8474;SDS011;4274;52.012;8.448;2023-03-23T05:17:26;42.67;;;3.57;;
8474;SDS011;4274;52.012;8.448;2023-03-23T05:19:52;43.13;;;3.00;;
8474;SDS011;4274;52.012;8.448;2023-03-23T05:22:18;43.70;;;3.30;;
8474;SDS011;4274;52.012;8.448;2023-03-23T05:24:45;45.27;;;3.13;;
8474;SDS011;4274;52.012;8.448;2023-03-23T05:27:12;43.20;;;2.87;;
8474;SDS011;4274;52.012;8.448;2023-03-23T05:29:39;43.30;;;3.43;;
8474;SDS011;4274;52.012;8.448;2023-03-23T05:32:06;42.40;;;3.33;;
8474;SDS011;4274;52.012;8.448;2023-03-23T05:34:33;43.17;;;3.30;;
8474;SDS011;4274;52.012;8.448;2023-03-23T05:37:00;42.10;;;3.20;;
8474;SDS011;4274;52.012;8.448;2023-03-23T05:39:29;42.73;;;3.60;;
8474;SDS011;4274;52.012;8.448;2023-03-23T05:41:56;46.80;;;3.93;;
8474;SDS011;4274;52.012;8.448;2023-03-23T05:44:22;45.53;;;3.77;;
8474;SDS011;4274;52.012;8.448;2023-03-23T05:46:48;44.30;;;4.10;;
8474;SDS011;4274;52.012;8.448;2023-03-23T05:49:14;43.50;;;3.20;;
8474;SDS011;4274;52.012;8.448;2023-03-23T05:51:43;43.73;;;3.40;;
8474;SDS011;4274;52.012;8.448;2023-03-23T05:54:11;42.60;;;3.10;;
8474;SDS011;4274;52.012;8.448;2023-03-23T05:56:37;43.80;;;3.50;;
8474;SDS011;4274;52.012;8.448;2023-03-23T05:59:03;42.40;;;3.20;;
8474;SDS011;4274;52.012;8.448;2023-03-23T06:01:29;41.90;;;2.73;;
8474;SDS011;4274;52.012;8.448;2023-03-23T06:03:54;43.30;;;3.10;;
8474;SDS011;4274;52.012;8.448;2023-03-23T06:06:23;47.23;;;3.10;;
8474;SDS011;4274;52.012;8.448;2023-03-23T06:08:50;42.93;;;3.40;;
8474;SDS011;4274;52.012;8.448;2023-03-23T06:11:15;42.17;;;3.10;;
8474;SDS011;4274;52.012;8.448;2023-03-23T06:13:41;42.20;;;3.00;;
8474;SDS011;4274;52.012;8.448;2023-03-23T06:16:07;43.10;;;3.40;;
8474;SDS011;4274;52.012;8.448;2023-03-23T06:18:33;43.60;;;3.00;;
8474;SDS011;4274;52.012;8.448;2023-03-23T06:21:01;41.90;;;3.07;;
8474;SDS011;4274;52.012;8.448;2023-03-23T06:23:28;42.13;;;3.00;;
8474;SDS011;4274;52.012;8.448;2023-03-23T06:25:54;42.60;;;3.10;;
8474;SDS011;4274;52.012;8.448;2023-03-23T06:28:24;42.50;;;3.17;;
8474;SDS011;4274;52.012;8.448;2023-03-23T06:30:50;42.90;;;2.97;;
8474;SDS011;4274;52.012;8.448;2023-03-23T06:33:15;41.90;;;2.93;;
8474;SDS011;4274;52.012;8.448;2023-03-23T06:35:42;43.17;;;3.17;;
8474;SDS011;4274;52.012;8.448;2023-03-23T06:38:08;42.87;;;3.10;;
8474;SDS011;4274;52.012;8.448;2023-03-23T06:40:33;43.00;;;3.13;;
8474;SDS011;4274;52.012;8.448;2023-03-23T06:43:00;43.10;;;3.13;;
8474;SDS011;4274;52.012;8.448;2023-03-23T06:45:30;42.40;;;3.30;;
8474;SDS011;4274;52.012;8.448;2023-03-23T06:47:56;42.30;;;3.03;;
8474;SDS011;4274;52.012;8.448;2023-03-23T06:50:21;42.40;;;3.40;;
8474;SDS011;4274;52.012;8.448;2023-03-23T06:52:48;42.17;;;3.23;;
8474;SDS011;4274;52.012;8.448;2023-03-23T06:55:16;42.77;;;3.07;;
8474;SDS011;4274;52.012;8.448;2023-03-23T06:57:42;44.47;;;3.30;;
8474;SDS011;4274;52.012;8.448;2023-03-23T07:00:09;43.23;;;3.33;;
8474;SDS011;4274;52.012;8.448;2023-03-23T07:02:37;49.97;;;3.63;;
8474;SDS011;4274;52.012;8.448;2023-03-23T07:05:03;44.00;;;3.10;;
8474;SDS011;4274;52.012;8.448;2023-03-23T07:07:29;47.10;;;4.00;;
8474;SDS011;4274;52.012;8.448;2023-03-23T07:09:56;43.00;;;3.20;;
8474;SDS011;4274;52.012;8.448;2023-03-23T07:12:21;43.53;;;3.37;;
8474;SDS011;4274;52.012;8.448;2023-03-23T07:14:47;42.53;;;3.00;;
8474;SDS011;4274;52.012;8.448;2023-03-23T07:17:13;44.83;;;3.63;;
8474;SDS011;4274;52.012;8.448;2023-03-23T07:19:38;45.10;;;3.30;;
8474;SDS011;4274;52.012;8.448;2023-03-23T07:22:05;44.37;;;3.37;;
8474;SDS011;4274;52.012;8.448;2023-03-23T07:24:32;43.00;;;2.80;;
8474;SDS011;4274;52.012;8.448;2023-03-23T07:26:58;43.50;;;3.20;;
8474;SDS011;4274;52.012;8.448;2023-03-23T07:29:24;43.50;;;3.13;;
8474;SDS011;4274;52.012;8.448;2023-03-23T07:31:50;45.30;;;3.43;;
8474;SDS011;4274;52.012;8.448;2023-03-23T07:34:17;44.37;;;3.50;;
8474;SDS011;4274;52.012;8.448;2023-03-23T07:36:44;45.60;;;3.30;;
8474;SDS011;4274;52.012;8.448;2023-03-23T07:39:10;43.20;;;3.10;;
8474;SDS011;4274;52.012;8.448;2023-03-23T07:41:37;44.07;;;3.47;;
8474;SDS011;4274;52.012;8.448;2023-03-23T07:44:03;46.77;;;3.00;;
8474;SDS011;4274;52.012;8.448;2023-03-23T07:46:29;45.90;;;3.30;;
8474;SDS011;4274;52.012;8.448;2023-03-23T07:48:54;42.80;;;3.13;;
8474;SDS011;4274;52.012;8.448;2023-03-23T07:51:21;44.17;;;3.30;;
8474;SDS011;4274;52.012;8.448;2023-03-23T07:53:47;45.77;;;3.53;;
8474;SDS011;4274;52.012;8.448;2023-03-23T07:56:13;45.53;;;3.27;;
8474;SDS011;4274;52.012;8.448;2023-03-23T07:58:43;44.33;;;3.20;;
8474;SDS011;4274;52.012;8.448;2023-03-23T08:01:09;45.30;;;3.70;;
8474;SDS011;4274;52.012;8.448;2023-03-23T08:03:35;46.17;;;3.47;;
8474;SDS011;4274;52.012;8.448;2023-03-23T08:06:02;46.77;;;3.93;;
8474;SDS011;4274;52.012;8.448;2023-03-23T08:08:28;45.83;;;3.83;;
8474;SDS011;4274;52.012;8.448;2023-03-23T08:10:55;44.37;;;3.67;;
8474;SDS011;4274;52.012;8.448;2023-03-23T08:13:20;43.93;;;3.57;;
8474;SDS011;4274;52.012;8.448;2023-03-23T08:15:46;43.70;;;3.80;;
8474;SDS011;4274;52.012;8.448;2023-03-23T08:18:12;46.07;;;3.73;;
8474;SDS011;4274;52.012;8.448;2023-03-23T08:20:37;47.23;;;4.10;;
8474;SDS011;4274;52.012;8.448;2023-03-23T08:23:03;45.60;;;3.50;;
8474;SDS011;4274;52.012;8.448;2023-03-23T08:25:29;46.00;;;3.27;;
8474;SDS011;4274;52.012;8.448;2023-03-23T08:27:58;44.10;;;3.47;;
8474;SDS011;4274;52.012;8.448;2023-03-23T08:30:26;44.70;;;3.50;;
8474;SDS011;4274;52.012;8.448;2023-03-23T08:32:54;48.10;;;3.40;;
8474;SDS011;4274;52.012;8.448;2023-03-23T08:35:21;43.93;;;3.70;;
8474;SDS011;4274;52.012;8.448;2023-03-23T08:37:47;45.47;;;3.40;;
8474;SDS011;4274;52.012;8.448;2023-03-23T08:40:16;48.57;;;3.60;;
8474;SDS011;4274;52.012;8.448;2023-03-23T08:42:44;47.03;;;3.70;;
8474;SDS011;4274;52.012;8.448;2023-03-23T08:45:12;46.67;;;3.53;;
8474;SDS011;4274;52.012;8.448;2023-03-23T08:47:39;47.87;;;4.23;;
8474;SDS011;4274;52.012;8.448;2023-03-23T08:50:06;44.77;;;2.93;;
8474;SDS011;4274;52.012;8.448;2023-03-23T08:52:39;45.03;;;3.20;;
8474;SDS011;4274;52.012;8.448;2023-03-23T08:55:05;46.80;;;4.00;;
8474;SDS011;4274;52.012;8.448;2023-03-23T08:57:33;47.73;;;3.50;;
8474;SDS011;4274;52.012;8.448;2023-03-23T09:00:01;46.10;;;3.43;;
8474;SDS011;4274;52.012;8.448;2023-03-23T09:02:42;51.03;;;3.90;;
8474;SDS011;4274;52.012;8.448;2023-03-23T09:05:10;45.50;;;3.63;;
8474;SDS011;4274;52.012;8.448;2023-03-23T09:07:39;49.30;;;3.67;;
8474;SDS011;4274;52.012;8.448;2023-03-23T09:10:07;54.23;;;4.10;;
8474;SDS011;4274;52.012;8.448;2023-03-23T09:12:34;54.50;;;3.97;;
8474;SDS011;4274;52.012;8.448;2023-03-23T09:15:01;46.70;;;3.13;;
8474;SDS011;4274;52.012;8.448;2023-03-23T09:17:33;47.20;;;3.80;;
8474;SDS011;4274;52.012;8.448;2023-03-23T09:20:04;51.27;;;3.70;;
8474;SDS011;4274;52.012;8.448;2023-03-23T09:22:40;46.47;;;3.27;;
8474;SDS011;4274;52.012;8.448;2023-03-23T09:25:09;43.63;;;3.10;;
8474;SDS011;4274;52.012;8.448;2023-03-23T09:27:35;45.80;;;3.60;;
8474;SDS011;4274;52.012;8.448;2023-03-23T09:30:05;46.47;;;3.27;;
8474;SDS011;4274;52.012;8.448;2023-03-23T09:32:33;44.17;;;3.13;;
8474;SDS011;4274;52.012;8.448;2023-03-23T09:35:00;46.57;;;3.40;;
8474;SDS011;4274;52.012;8.448;2023-03-23T09:37:26;47.63;;;3.53;;
8474;SDS011;4274;52.012;8.448;2023-03-23T09:39:52;43.97;;;3.30;;
8474;SDS011;4274;52.012;8.448;2023-03-23T09:42:22;46.37;;;3.60;;
8474;SDS011;4274;52.012;8.448;2023-03-23T09:50:18;46.67;;;3.30;;
8474;SDS011;4274;52.012;8.448;2023-03-23T09:52:53;46.60;;;3.47;;
8474;SDS011;4274;52.012;8.448;2023-03-23T09:55:21;44.10;;;3.17;;
8474;SDS011;4274;52.012;8.448;2023-03-23T09:57:55;45.10;;;3.50;;
8474;SDS011;4274;52.012;8.448;2023-03-23T10:00:37;44.53;;;3.67;;
8474;SDS011;4274;52.012;8.448;2023-03-23T10:03:18;45.67;;;3.40;;
8474;SDS011;4274;52.012;8.448;2023-03-23T10:05:48;45.93;;;3.07;;
8474;SDS011;4274;52.012;8.448;2023-03-23T10:08:18;45.47;;;3.50;;
8474;SDS011;4274;52.012;8.448;2023-03-23T10:10:58;44.13;;;3.23;;
8474;SDS011;4274;52.012;8.448;2023-03-23T10:16:25;47.00;;;3.63;;
8474;SDS011;4274;52.012;8.448;2023-03-23T10:19:15;47.57;;;3.23;;
8474;SDS011;4274;52.012;8.448;2023-03-23T10:21:55;46.20;;;3.43;;
8474;SDS011;4274;52.012;8.448;2023-03-23T10:24:35;47.77;;;3.90;;
8474;SDS011;4274;52.012;8.448;2023-03-23T10:29:48;46.17;;;3.47;;
8474;SDS011;4274;52.012;8.448;2023-03-23T10:32:19;44.33;;;3.40;;
8474;SDS011;4274;52.012;8.448;2023-03-23T10:34:53;45.97;;;3.33;;
8474;SDS011;4274;52.012;8.448;2023-03-23T10:37:27;47.33;;;3.80;;
8474;SDS011;4274;52.012;8.448;2023-03-23T10:40:02;46.73;;;3.30;;
8474;SDS011;4274;52.012;8.448;2023-03-23T10:42:36;45.93;;;3.20;;
8474;SDS011;4274;52.012;8.448;2023-03-23T10:45:37;46.07;;;3.17;;
8474;SDS011;4274;52.012;8.448;2023-03-23T10:48:15;47.13;;;3.37;;
8474;SDS011;4274;52.012;8.448;2023-03-23T10:50:46;43.77;;;2.50;;
8474;SDS011;4274;52.012;8.448;2023-03-23T10:53:16;42.10;;;1.77;;
8474;SDS011;4274;52.012;8.448;2023-03-23T10:55:53;42.07;;;2.10;;
8474;SDS011;4274;52.012;8.448;2023-03-23T10:58:24;42.93;;;2.00;;
8474;SDS011;4274;52.012;8.448;2023-03-23T11:00:55;42.90;;;2.00;;
8474;SDS011;4274;52.012;8.448;2023-03-23T11:03:25;43.67;;;2.20;;
8474;SDS011;4274;52.012;8.448;2023-03-23T11:06:08;42.67;;;2.60;;
8474;SDS011;4274;52.012;8.448;2023-03-23T11:08:38;44.20;;;2.20;;
8474;SDS011;4274;52.012;8.448;2023-03-23T11:11:16;42.20;;;2.20;;
8474;SDS011;4274;52.012;8.448;2023-03-23T11:13:44;43.00;;;2.50;;
8474;SDS011;4274;52.012;8.448;2023-03-23T11:16:22;43.90;;;2.47;;
8474;SDS011;4274;52.012;8.448;2023-03-23T11:18:48;41.57;;;2.00;;
8474;SDS011;4274;52.012;8.448;2023-03-23T11:21:14;45.03;;;2.27;;
8474;SDS011;4274;52.012;8.448;2023-03-23T11:23:41;41.97;;;2.20;;
8474;SDS011;4274;52.012;8.448;2023-03-23T11:26:16;42.10;;;2.10;;
8474;SDS011;4274;52.012;8.448;2023-03-23T11:29:08;43.30;;;2.40;;
8474;SDS011;4274;52.012;8.448;2023-03-23T11:31:44;42.37;;;2.30;;
8474;SDS011;4274;52.012;8.448;2023-03-23T11:34:30;45.97;;;2.40;;
8474;SDS011;4274;52.012;8.448;2023-03-23T11:37:01;43.90;;;2.30;;
8474;SDS011;4274;52.012;8.448;2023-03-23T11:42:42;41.80;;;2.30;;
8474;SDS011;4274;52.012;8.448;2023-03-23T11:56:15;41.77;;;2.40;;
8474;SDS011;4274;52.012;8.448;2023-03-23T11:58:49;43.33;;;2.80;;
8474;SDS011;4274;52.012;8.448;2023-03-23T12:01:24;42.37;;;2.80;;
8474;SDS011;4274;52.012;8.448;2023-03-23T12:06:50;42.90;;;2.60;;
8474;SDS011;4274;52.012;8.448;2023-03-23T12:12:23;45.20;;;3.03;;
8474;SDS011;4274;52.012;8.448;2023-03-23T12:34:11;40.90;;;2.10;;
8474;SDS011;4274;52.012;8.448;2023-03-23T12:40:03;40.73;;;2.00;;
8474;SDS011;4274;52.012;8.448;2023-03-23T12:46:21;41.07;;;2.17;;
8474;SDS011;4274;52.012;8.448;2023-03-23T12:48:46;43.30;;;2.57;;
8474;SDS011;4274;52.012;8.448;2023-03-23T12:56:44;44.17;;;2.67;;
8474;SDS011;4274;52.012;8.448;2023-03-23T12:59:23;45.33;;;2.40;;
8474;SDS011;4274;52.012;8.448;2023-03-23T13:01:52;42.67;;;2.50;;
8474;SDS011;4274;52.012;8.448;2023-03-23T13:04:26;42.37;;;2.27;;
8474;SDS011;4274;52.012;8.448;2023-03-23T13:06:59;43.50;;;2.47;;
8474;SDS011;4274;52.012;8.448;2023-03-23T13:12:17;41.87;;;2.30;;
8474;SDS011;4274;52.012;8.448;2023-03-23T13:14:54;41.50;;;2.20;;
8474;SDS011;4274;52.012;8.448;2023-03-23T13:17:31;43.47;;;2.27;;
8474;SDS011;4274;52.012;8.448;2023-03-23T13:20:30;42.37;;;2.43;;
8474;SDS011;4274;52.012;8.448;2023-03-23T13:25:51;44.13;;;2.53;;
8474;SDS011;4274;52.012;8.448;2023-03-23T13:28:31;43.13;;;2.53;;
8474;SDS011;4274;52.012;8.448;2023-03-23T13:33:45;48.43;;;3.17;;
8474;SDS011;4274;52.012;8.448;2023-03-23T13:36:14;42.30;;;2.70;;
8474;SDS011;4274;52.012;8.448;2023-03-23T13:38:45;43.70;;;2.23;;
8474;SDS011;4274;52.012;8.448;2023-03-23T13:41:14;42.10;;;2.50;;
8474;SDS011;4274;52.012;8.448;2023-03-23T13:43:42;42.23;;;2.50;;
8474;SDS011;4274;52.012;8.448;2023-03-23T13:54:24;42.43;;;2.90;;
8474;SDS011;4274;52.012;8.448;2023-03-23T13:56:57;43.03;;;3.00;;
8474;SDS011;4274;52.012;8.448;2023-03-23T14:01:51;43.93;;;3.20;;
8474;SDS011;4274;52.012;8.448;2023-03-23T14:04:21;43.77;;;3.20;;
8474;SDS011;4274;52.012;8.448;2023-03-23T14:06:55;43.80;;;3.20;;
8474;SDS011;4274;52.012;8.448;2023-03-23T14:09:27;44.23;;;3.13;;
8474;SDS011;4274;52.012;8.448;2023-03-23T14:11:58;43.23;;;3.57;;
8474;SDS011;4274;52.012;8.448;2023-03-23T14:14:33;45.70;;;3.33;;
8474;SDS011;4274;52.012;8.448;2023-03-23T14:17:11;44.47;;;3.10;;
8474;SDS011;4274;52.012;8.448;2023-03-23T14:19:42;43.03;;;3.50;;
8474;SDS011;4274;52.012;8.448;2023-03-23T14:22:23;44.60;;;3.77;;
8474;SDS011;4274;52.012;8.448;2023-03-23T14:24:49;44.50;;;3.70;;
8474;SDS011;4274;52.012;8.448;2023-03-23T14:29:48;46.30;;;4.40;;
8474;SDS011;4274;52.012;8.448;2023-03-23T14:32:25;44.63;;;4.20;;
8474;SDS011;4274;52.012;8.448;2023-03-23T14:34:53;47.47;;;5.30;;
8474;SDS011;4274;52.012;8.448;2023-03-23T14:37:20;46.63;;;4.60;;
8474;SDS011;4274;52.012;8.448;2023-03-23T14:39:47;44.87;;;4.03;;
8474;SDS011;4274;52.012;8.448;2023-03-23T14:42:19;48.63;;;4.20;;
8474;SDS011;4274;52.012;8.448;2023-03-23T14:44:49;44.40;;;4.27;;
8474;SDS011;4274;52.012;8.448;2023-03-23T14:47:23;43.40;;;4.03;;
8474;SDS011;4274;52.012;8.448;2023-03-23T14:49:54;49.40;;;5.50;;
8474;SDS011;4274;52.012;8.448;2023-03-23T14:52:23;44.20;;;4.43;;
8474;SDS011;4274;52.012;8.448;2023-03-23T14:54:51;42.60;;;4.00;;
8474;SDS011;4274;52.012;8.448;2023-03-23T14:57:18;45.10;;;4.23;;
8474;SDS011;4274;52.012;8.448;2023-03-23T14:59:51;44.97;;;4.27;;
8474;SDS011;4274;52.012;8.448;2023-03-23T15:02:24;44.20;;;4.50;;
8474;SDS011;4274;52.012;8.448;2023-03-23T15:04:57;48.67;;;5.03;;
8474;SDS011;4274;52.012;8.448;2023-03-23T15:07:28;45.53;;;4.70;;
8474;SDS011;4274;52.012;8.448;2023-03-23T15:09:57;43.80;;;4.20;;
8474;SDS011;4274;52.012;8.448;2023-03-23T15:12:24;46.67;;;4.30;;
8474;SDS011;4274;52.012;8.448;2023-03-23T15:14:54;44.60;;;4.33;;
8474;SDS011;4274;52.012;8.448;2023-03-23T15:17:27;46.50;;;5.17;;
8474;SDS011;4274;52.012;8.448;2023-03-23T15:19:55;46.20;;;4.57;;
8474;SDS011;4274;52.012;8.448;2023-03-23T15:22:27;45.73;;;5.00;;
8474;SDS011;4274;52.012;8.448;2023-03-23T15:27:39;44.70;;;3.80;;
8474;SDS011;4274;52.012;8.448;2023-03-23T15:30:27;46.63;;;4.10;;
8474;SDS011;4274;52.012;8.448;2023-03-23T15:32:59;45.23;;;3.40;;
8474;SDS011;4274;52.012;8.448;2023-03-23T15:35:32;44.00;;;3.70;;
8474;SDS011;4274;52.012;8.448;2023-03-23T15:38:01;47.73;;;3.90;;
8474;SDS011;4274;52.012;8.448;2023-03-23T15:40:32;43.50;;;3.53;;
8474;SDS011;4274;52.012;8.448;2023-03-23T15:43:19;46.77;;;3.70;;
8474;SDS011;4274;52.012;8.448;2023-03-23T15:45:58;44.63;;;3.87;;
8474;SDS011;4274;52.012;8.448;2023-03-23T15:48:48;45.40;;;4.50;;
8474;SDS011;4274;52.012;8.448;2023-03-23T15:51:13;44.60;;;3.70;;
8474;SDS011;4274;52.012;8.448;2023-03-23T15:53:41;45.87;;;3.70;;
8474;SDS011;4274;52.012;8.448;2023-03-23T15:56:07;47.90;;;3.80;;
8474;SDS011;4274;52.012;8.448;2023-03-23T15:58:35;43.77;;;3.80;;
8474;SDS011;4274;52.012;8.448;2023-03-23T16:01:03;46.60;;;4.30;;
8474;SDS011;4274;52.012;8.448;2023-03-23T16:03:37;46.83;;;3.83;;
8474;SDS011;4274;52.012;8.448;2023-03-23T16:06:14;48.23;;;3.87;;
8474;SDS011;4274;52.012;8.448;2023-03-23T16:08:42;52.17;;;4.70;;
8474;SDS011;4274;52.012;8.448;2023-03-23T16:11:11;49.30;;;4.70;;
8474;SDS011;4274;52.012;8.448;2023-03-23T16:13:38;46.13;;;4.80;;
8474;SDS011;4274;52.012;8.448;2023-03-23T16:16:05;45.97;;;4.60;;
8474;SDS011;4274;52.012;8.448;2023-03-23T16:18:35;46.60;;;4.97;;
8474;SDS011;4274;52.012;8.448;2023-03-23T16:21:00;51.53;;;5.00;;
8474;SDS011;4274;52.012;8.448;2023-03-23T16:23:27;46.07;;;5.03;;
8474;SDS011;4274;52.012;8.448;2023-03-23T16:25:53;45.00;;;4.70;;
8474;SDS011;4274;52.012;8.448;2023-03-23T16:28:18;47.53;;;4.57;;
8474;SDS011;4274;52.012;8.448;2023-03-23T16:30:44;47.93;;;5.53;;
8474;SDS011;4274;52.012;8.448;2023-03-23T16:33:12;47.00;;;4.97;;
8474;SDS011;4274;52.012;8.448;2023-03-23T16:35:38;45.10;;;4.80;;
8474;SDS011;4274;52.012;8.448;2023-03-23T16:38:04;45.57;;;4.80;;
8474;SDS011;4274;52.012;8.448;2023-03-23T16:40:30;48.67;;;5.57;;
8474;SDS011;4274;52.012;8.448;2023-03-23T16:42:57;45.63;;;5.23;;
8474;SDS011;4274;52.012;8.448;2023-03-23T16:45:22;49.13;;;5.20;;
8474;SDS011;4274;52.012;8.448;2023-03-23T16:47:48;46.60;;;5.10;;
8474;SDS011;4274;52.012;8.448;2023-03-23T16:50:15;45.50;;;4.70;;
8474;SDS011;4274;52.012;8.448;2023-03-23T16:52:43;44.90;;;5.00;;
8474;SDS011;4274;52.012;8.448;2023-03-23T16:55:11;45.90;;;4.97;;